createdAt,value
2023-04-09T00:00:45.090Z,-75
2023-04-09T00:03:13.576Z,-75
2023-04-09T00:05:43.033Z,-75
2023-04-09T00:08:11.118Z,-75
2023-04-09T00:10:39.160Z,-75
2023-04-09T00:13:07.258Z,-75
2023-04-09T00:15:35.393Z,-75
2023-04-09T00:18:03.501Z,-75
2023-04-09T00:20:31.619Z,-74
2023-04-09T00:23:01.425Z,-75
2023-04-09T00:25:29.783Z,-74
2023-04-09T00:27:57.836Z,-75
2023-04-09T00:30:26.010Z,-75
2023-04-09T00:32:54.114Z,-75
2023-04-09T00:35:22.309Z,-75
2023-04-09T00:37:53.150Z,-75
2023-04-09T00:40:22.584Z,-75
2023-04-09T00:42:50.673Z,-75
2023-04-09T00:45:19.037Z,-75
2023-04-09T00:47:47.088Z,-75
2023-04-09T00:50:15.708Z,-74
2023-04-09T00:52:43.936Z,-74
2023-04-09T00:55:12.197Z,-75
2023-04-09T00:57:41.687Z,-75
2023-04-09T01:00:11.474Z,-75
2023-04-09T01:02:39.747Z,-75
2023-04-09T01:05:08.450Z,-75
2023-04-09T01:07:43.030Z,-75
2023-04-09T01:10:17.816Z,-75
2023-04-09T01:12:53.084Z,-74
2023-04-09T01:15:23.796Z,-75
2023-04-09T01:17:54.154Z,-76
2023-04-09T01:20:24.375Z,-75
2023-04-09T01:22:58.899Z,-75
2023-04-09T01:25:34.693Z,-75
2023-04-09T01:28:19.877Z,-74
2023-04-09T01:30:50.802Z,-74
2023-04-09T01:33:19.593Z,-75
2023-04-09T01:35:48.241Z,-74
2023-04-09T01:38:16.404Z,-75
2023-04-09T01:40:44.502Z,-75
2023-04-09T01:43:12.554Z,-74
2023-04-09T01:45:44.426Z,-75
2023-04-09T01:48:12.731Z,-75
2023-04-09T01:50:40.909Z,-74
2023-04-09T01:53:08.945Z,-75
2023-04-09T01:55:36.977Z,-75
2023-04-09T01:58:05.076Z,-75
2023-04-09T02:00:35.500Z,-75
2023-04-09T02:03:08.145Z,-75
2023-04-09T02:05:45.829Z,-75
2023-04-09T02:08:14.474Z,-76
2023-04-09T02:10:42.562Z,-75
2023-04-09T02:13:11.187Z,-75
2023-04-09T02:15:39.271Z,-75
2023-04-09T02:18:24.512Z,-75
2023-04-09T02:20:53.558Z,-75
2023-04-09T02:23:22.028Z,-74
2023-04-09T02:25:50.098Z,-75
2023-04-09T02:28:18.145Z,-75
2023-04-09T02:30:46.231Z,-75
2023-04-09T02:33:14.390Z,-75
2023-04-09T02:35:43.889Z,-75
2023-04-09T02:38:13.939Z,-75
2023-04-09T02:40:42.256Z,-75
2023-04-09T02:43:10.275Z,-75
2023-04-09T02:45:38.369Z,-75
2023-04-09T02:48:06.755Z,-75
2023-04-09T02:50:34.835Z,-75
2023-04-09T02:53:04.507Z,-75
2023-04-09T02:55:32.820Z,-74
2023-04-09T02:58:00.888Z,-74
2023-04-09T03:00:28.969Z,-75
2023-04-09T03:02:58.102Z,-75
2023-04-09T03:05:26.430Z,-75
2023-04-09T03:07:55.172Z,-74
2023-04-09T03:10:24.539Z,-74
2023-04-09T03:12:52.629Z,-75
2023-04-09T03:15:20.915Z,-75
2023-04-09T03:17:49.018Z,-74
2023-04-09T03:20:17.181Z,-75
2023-04-09T03:22:45.224Z,-74
2023-04-09T03:25:13.298Z,-75
2023-04-09T03:27:42.699Z,-75
2023-04-09T03:30:11.780Z,-74
2023-04-09T03:32:39.894Z,-74
2023-04-09T03:35:08.563Z,-75
2023-04-09T03:37:36.930Z,-75
2023-04-09T03:40:05.724Z,-75
2023-04-09T03:42:35.060Z,-75
2023-04-09T03:45:05.035Z,-75
2023-04-09T03:47:33.912Z,-75
2023-04-09T03:50:02.298Z,-75
2023-04-09T03:52:30.405Z,-75
2023-04-09T03:54:58.462Z,-75
2023-04-09T03:57:26.481Z,-75
2023-04-09T03:59:54.615Z,-75
2023-04-09T04:02:27.004Z,-75
2023-04-09T04:04:55.607Z,-74
2023-04-09T04:07:23.692Z,-75
2023-04-09T04:09:51.749Z,-75
2023-04-09T04:12:19.802Z,-75
2023-04-09T04:14:47.857Z,-75
2023-04-09T04:17:15.947Z,-76
2023-04-09T04:19:45.452Z,-75
2023-04-09T04:22:13.519Z,-75
2023-04-09T04:24:41.557Z,-73
2023-04-09T04:27:09.702Z,-76
2023-04-09T04:29:38.941Z,-76
2023-04-09T04:32:07.381Z,-76
2023-04-09T04:34:35.462Z,-76
2023-04-09T04:37:04.882Z,-75
2023-04-09T04:39:32.956Z,-76
2023-04-09T04:42:01.331Z,-75
2023-04-09T04:44:29.405Z,-76
2023-04-09T04:46:57.451Z,-76
2023-04-09T04:49:25.647Z,-74
2023-04-09T04:51:53.673Z,-74
2023-04-09T04:54:23.120Z,-75
2023-04-09T04:56:51.182Z,-76
2023-04-09T04:59:19.231Z,-75
2023-04-09T05:01:47.356Z,-73
2023-04-09T05:04:15.514Z,-75
2023-04-09T05:06:43.625Z,-75
2023-04-09T05:09:11.696Z,-75
2023-04-09T05:11:41.124Z,-75
2023-04-09T05:14:09.185Z,-75
2023-04-09T05:16:37.557Z,-74
2023-04-09T05:19:05.696Z,-75
2023-04-09T05:21:33.771Z,-75
2023-04-09T05:24:01.872Z,-74
2023-04-09T05:26:29.944Z,-74
2023-04-09T05:28:59.395Z,-76
2023-04-09T05:31:27.477Z,-75
2023-04-09T05:33:55.595Z,-75
2023-04-09T05:36:23.656Z,-76
2023-04-09T05:38:52.159Z,-75
2023-04-09T05:41:20.546Z,-76
2023-04-09T05:43:48.657Z,-76
2023-04-09T05:46:18.109Z,-75
2023-04-09T05:48:46.232Z,-75
2023-04-09T05:51:15.557Z,-76
2023-04-09T05:53:48.226Z,-75
2023-04-09T05:56:16.612Z,-73
2023-04-09T05:58:44.874Z,-75
2023-04-09T06:01:12.963Z,-76
2023-04-09T06:03:42.488Z,-76
2023-04-09T06:06:10.628Z,-76
2023-04-09T06:08:38.694Z,-73
2023-04-09T06:11:10.467Z,-75
2023-04-09T06:13:42.245Z,-75
2023-04-09T06:16:12.275Z,-75
2023-04-09T06:18:40.368Z,-74
2023-04-09T06:21:10.141Z,-73
2023-04-09T06:23:38.271Z,-74
2023-04-09T06:26:06.469Z,-75
2023-04-09T06:28:34.524Z,-75
2023-04-09T06:31:02.651Z,-75
2023-04-09T06:33:30.811Z,-74
2023-04-09T06:35:58.941Z,-74
2023-04-09T06:38:28.421Z,-75
2023-04-09T06:40:57.724Z,-76
2023-04-09T06:43:30.683Z,-76
2023-04-09T06:45:58.751Z,-76
2023-04-09T06:48:26.793Z,-75
2023-04-09T06:50:54.937Z,-76
2023-04-09T06:53:23.037Z,-76
2023-04-09T06:55:52.787Z,-76
2023-04-09T06:58:21.207Z,-76
2023-04-09T07:00:49.284Z,-75
2023-04-09T07:03:18.512Z,-76
2023-04-09T07:05:47.353Z,-75
2023-04-09T07:08:15.410Z,-75
2023-04-09T07:10:43.463Z,-75
2023-04-09T07:13:12.876Z,-75
2023-04-09T07:15:42.513Z,-75
2023-04-09T07:18:10.836Z,-76
2023-04-09T07:20:38.934Z,-75
2023-04-09T07:23:06.991Z,-74
2023-04-09T07:25:35.180Z,-76
2023-04-09T07:28:03.207Z,-75
2023-04-09T07:30:33.003Z,-75
2023-04-09T07:33:01.147Z,-75
2023-04-09T07:35:29.247Z,-75
2023-04-09T07:37:57.348Z,-76
2023-04-09T07:40:25.408Z,-75
2023-04-09T07:42:55.672Z,-75
2023-04-09T07:45:23.813Z,-75
2023-04-09T07:47:53.236Z,-74
2023-04-09T07:50:21.409Z,-74
2023-04-09T07:52:49.515Z,-75
2023-04-09T07:55:18.611Z,-75
2023-04-09T07:57:46.723Z,-75
2023-04-09T08:00:15.718Z,-74
2023-04-09T08:02:44.562Z,-74
2023-04-09T08:05:14.280Z,-75
2023-04-09T08:07:42.390Z,-75
2023-04-09T08:10:15.171Z,-75
2023-04-09T08:12:43.376Z,-74
2023-04-09T08:15:12.007Z,-74
2023-04-09T08:17:40.162Z,-75
2023-04-09T08:20:09.395Z,-75
2023-04-09T08:22:38.855Z,-75
2023-04-09T08:25:08.006Z,-74
2023-04-09T08:27:37.084Z,-75
2023-04-09T08:30:05.642Z,-75
2023-04-09T08:32:33.864Z,-75
2023-04-09T08:35:01.947Z,-76
2023-04-09T08:37:30.040Z,-75
2023-04-09T08:39:59.514Z,-75
2023-04-09T08:42:27.582Z,-77
2023-04-09T08:44:55.626Z,-75
2023-04-09T08:47:23.749Z,-75
2023-04-09T08:49:51.892Z,-75
2023-04-09T08:52:22.049Z,-75
2023-04-09T08:54:50.650Z,-75
2023-04-09T08:57:20.118Z,-76
2023-04-09T08:59:48.171Z,-74
2023-04-09T09:02:16.307Z,-75
2023-04-09T09:04:47.966Z,-75
2023-04-09T09:07:16.155Z,-75
2023-04-09T09:09:54.330Z,-75
2023-04-09T09:12:34.945Z,-75
2023-04-09T09:15:03.239Z,-75
2023-04-09T09:17:36.864Z,-75
2023-04-09T09:20:19.986Z,-74
2023-04-09T09:22:55.045Z,-75
2023-04-09T09:25:25.604Z,-74
2023-04-09T09:27:55.414Z,-75
2023-04-09T09:30:23.895Z,-76
2023-04-09T09:32:54.143Z,-75
2023-04-09T09:35:22.485Z,-74
2023-04-09T09:38:04.574Z,-75
2023-04-09T09:40:32.741Z,-75
2023-04-09T09:43:02.190Z,-75
2023-04-09T09:45:30.297Z,-75
2023-04-09T09:47:58.372Z,-75
2023-04-09T09:50:27.093Z,-76
2023-04-09T09:52:59.197Z,-76
2023-04-09T09:55:27.906Z,-75
2023-04-09T09:57:55.957Z,-75
2023-04-09T10:00:25.627Z,-76
2023-04-09T10:02:57.851Z,-75
2023-04-09T10:05:30.683Z,-74
2023-04-09T10:07:59.044Z,-76
2023-04-09T10:10:27.292Z,-76
2023-04-09T10:12:56.249Z,-75
2023-04-09T10:15:25.664Z,-75
2023-04-09T10:17:53.757Z,-75
2023-04-09T10:20:26.110Z,-75
2023-04-09T10:22:54.210Z,-75
2023-04-09T10:25:24.474Z,-75
2023-04-09T10:28:01.211Z,-76
2023-04-09T10:30:37.313Z,-75
2023-04-09T10:33:12.229Z,-75
2023-04-09T10:35:40.324Z,-75
2023-04-09T10:38:11.426Z,-75
2023-04-09T10:40:43.050Z,-76
2023-04-09T10:43:11.118Z,-76
2023-04-09T10:45:43.638Z,-75
2023-04-09T10:48:18.489Z,-75
2023-04-09T10:50:46.686Z,-75
2023-04-09T10:53:24.803Z,-76
2023-04-09T10:55:53.743Z,-75
2023-04-09T10:58:21.863Z,-75
2023-04-09T11:00:52.350Z,-75
2023-04-09T11:03:24.931Z,-75
2023-04-09T11:06:01.279Z,-76
2023-04-09T11:08:32.722Z,-75
2023-04-09T11:11:01.771Z,-75
2023-04-09T11:13:30.760Z,-76
2023-04-09T11:16:01.428Z,-75
2023-04-09T11:18:30.360Z,-76
2023-04-09T11:20:59.243Z,-76
2023-04-09T11:23:27.354Z,-76
2023-04-09T11:25:55.488Z,-76
2023-04-09T11:28:24.363Z,-75
2023-04-09T11:30:52.569Z,-75
2023-04-09T11:33:22.473Z,-76
2023-04-09T11:35:50.528Z,-76
2023-04-09T11:38:18.582Z,-75
2023-04-09T11:40:49.311Z,-76
2023-04-09T11:43:18.147Z,-75
2023-04-09T11:45:48.255Z,-75
2023-04-09T11:48:19.328Z,-75
2023-04-09T11:50:48.775Z,-76
2023-04-09T11:53:19.710Z,-76
2023-04-09T11:55:48.957Z,-75
2023-04-09T11:58:17.436Z,-75
2023-04-09T12:00:45.484Z,-75
2023-04-09T12:03:16.286Z,-76
2023-04-09T12:05:51.338Z,-76
2023-04-09T12:08:23.608Z,-76
2023-04-09T12:10:53.335Z,-82
2023-04-09T12:13:22.040Z,-82
2023-04-09T12:15:50.481Z,-81
2023-04-09T12:18:24.546Z,-82
2023-04-09T12:20:53.963Z,-81
2023-04-09T12:23:24.536Z,-82
2023-04-09T12:25:55.313Z,-82
2023-04-09T12:28:23.383Z,-82
2023-04-09T12:30:52.077Z,-82
2023-04-09T12:33:20.143Z,-82
2023-04-09T12:35:48.238Z,-82
2023-04-09T12:38:17.712Z,-82
2023-04-09T12:40:46.310Z,-82
2023-04-09T12:43:14.408Z,-82
2023-04-09T12:45:42.505Z,-82
2023-04-09T12:48:10.761Z,-82
2023-04-09T12:50:38.786Z,-82
2023-04-09T12:53:06.819Z,-82
2023-04-09T12:55:36.233Z,-82
2023-04-09T12:58:04.320Z,-82
2023-04-09T13:00:33.491Z,-82
2023-04-09T13:03:01.856Z,-82
2023-04-09T13:05:31.517Z,-82
2023-04-09T13:07:59.606Z,-82
2023-04-09T13:10:27.871Z,-82
2023-04-09T13:12:57.307Z,-82
2023-04-09T13:15:25.354Z,-82
2023-04-09T13:17:53.446Z,-82
2023-04-09T13:20:21.918Z,-82
2023-04-09T13:22:51.014Z,-82
2023-04-09T13:25:19.132Z,-82
2023-04-09T13:27:48.551Z,-82
2023-04-09T13:30:18.037Z,-82
2023-04-09T13:32:46.162Z,-82
2023-04-09T13:35:14.242Z,-82
2023-04-09T13:37:42.301Z,-82
2023-04-09T13:40:11.103Z,-82
2023-04-09T13:42:39.175Z,-82
2023-04-09T13:45:08.241Z,-82
2023-04-09T13:47:37.916Z,-82
2023-04-09T13:50:07.452Z,-82
2023-04-09T13:52:35.491Z,-81
2023-04-09T13:55:04.020Z,-81
2023-04-09T13:57:32.057Z,-82
2023-04-09T14:00:02.557Z,-82
2023-04-09T14:02:30.783Z,-82
2023-04-09T14:05:00.406Z,-82
2023-04-09T14:07:28.472Z,-82
2023-04-09T14:09:56.536Z,-82
2023-04-09T14:12:24.582Z,-82
2023-04-09T14:14:52.961Z,-82
2023-04-09T14:17:21.036Z,-81
2023-04-09T14:19:49.099Z,-82
2023-04-09T14:22:18.526Z,-82
2023-04-09T14:24:46.704Z,-81
2023-04-09T14:27:14.823Z,-82
2023-04-09T14:29:42.897Z,-83
2023-04-09T14:32:11.108Z,-82
2023-04-09T14:34:39.193Z,-84
2023-04-09T14:37:07.249Z,-84
2023-04-09T14:39:36.723Z,-84
2023-04-09T14:42:04.982Z,-84
2023-04-09T14:44:33.224Z,-83
2023-04-09T14:47:01.332Z,-83
2023-04-09T14:49:29.441Z,-83
2023-04-09T14:51:57.640Z,-83
2023-04-09T14:54:25.795Z,-82
2023-04-09T14:56:57.160Z,-82
2023-04-09T14:59:25.725Z,-81
2023-04-09T15:01:54.736Z,-82
2023-04-09T15:04:23.589Z,-83
2023-04-09T15:06:52.231Z,-82
2023-04-09T15:09:30.878Z,-83
2023-04-09T15:12:01.488Z,-83
2023-04-09T15:14:30.655Z,-83
2023-04-09T15:17:00.827Z,-83
2023-04-09T15:19:29.096Z,-82
2023-04-09T15:21:57.430Z,-82
2023-04-09T15:24:25.512Z,-82
2023-04-09T15:26:53.572Z,-81
2023-04-09T15:29:23.002Z,-81
2023-04-09T15:31:51.462Z,-81
2023-04-09T15:34:19.512Z,-82
2023-04-09T15:36:47.549Z,-81
2023-04-09T15:39:16.038Z,-81
2023-04-09T15:41:44.091Z,-81
2023-04-09T15:44:12.161Z,-82
2023-04-09T15:46:41.633Z,-81
2023-04-09T15:49:09.739Z,-80
2023-04-09T15:51:37.828Z,-81
2023-04-09T15:54:05.971Z,-81
2023-04-09T15:56:36.215Z,-82
2023-04-09T15:59:05.429Z,-81
2023-04-09T16:01:44.311Z,-82
2023-04-09T16:04:12.386Z,-81
2023-04-09T16:06:40.485Z,-82
2023-04-09T16:09:08.547Z,-82
2023-04-09T16:11:37.519Z,-81
2023-04-09T16:14:05.776Z,-81
2023-04-09T16:16:33.926Z,-81
2023-04-09T16:19:03.382Z,-82
2023-04-09T16:21:32.279Z,-81
2023-04-09T16:24:01.342Z,-82
2023-04-09T16:26:29.671Z,-81
2023-04-09T16:28:59.922Z,-81
2023-04-09T16:31:31.051Z,-82
2023-04-09T16:33:59.050Z,-81
2023-04-09T16:36:28.537Z,-82
2023-04-09T16:38:56.595Z,-81
2023-04-09T16:41:24.662Z,-82
2023-04-09T16:43:52.726Z,-81
2023-04-09T16:46:20.804Z,-82
2023-04-09T16:48:48.882Z,-81
2023-04-09T16:51:18.291Z,-81
2023-04-09T16:53:47.753Z,-82
2023-04-09T16:56:15.909Z,-81
2023-04-09T16:58:44.013Z,-81
2023-04-09T17:01:12.151Z,-81
2023-04-09T17:03:40.439Z,-81
2023-04-09T17:06:08.662Z,-81
2023-04-09T17:08:36.750Z,-82
2023-04-09T17:11:06.722Z,-81
2023-04-09T17:13:35.794Z,-82
2023-04-09T17:16:07.549Z,-81
2023-04-09T17:18:36.823Z,-81
2023-04-09T17:21:05.244Z,-82
2023-04-09T17:23:33.300Z,-81
2023-04-09T17:26:08.406Z,-82
2023-04-09T17:28:36.460Z,-81
2023-04-09T17:31:04.620Z,-81
2023-04-09T17:33:32.762Z,-81
2023-04-09T17:36:01.539Z,-81
2023-04-09T17:38:30.875Z,-81
2023-04-09T17:40:58.980Z,-81
2023-04-09T17:43:28.455Z,-81
2023-04-09T17:45:56.698Z,-81
2023-04-09T17:48:24.827Z,-82
2023-04-09T17:50:52.906Z,-81
2023-04-09T17:53:22.011Z,-81
2023-04-09T17:55:51.020Z,-81
2023-04-09T17:58:19.148Z,-81
2023-04-09T18:00:48.855Z,-81
2023-04-09T18:03:18.016Z,-81
2023-04-09T18:05:46.505Z,-81
2023-04-09T18:08:14.705Z,-81
2023-04-09T18:10:43.183Z,-81
2023-04-09T18:13:11.222Z,-81
2023-04-09T18:15:39.338Z,-81
2023-04-09T18:18:08.868Z,-81
2023-04-09T18:20:36.904Z,-81
2023-04-09T18:23:04.975Z,-81
2023-04-09T18:25:33.010Z,-81
2023-04-09T18:28:01.108Z,-81
2023-04-09T18:30:29.178Z,-81
2023-04-09T18:32:57.332Z,-80
2023-04-09T18:35:26.977Z,-82
2023-04-09T18:37:55.083Z,-81
2023-04-09T18:40:23.142Z,-81
2023-04-09T18:42:52.435Z,-81
2023-04-09T18:45:20.626Z,-82
2023-04-09T18:47:48.750Z,-81
2023-04-09T18:50:18.616Z,-81
2023-04-09T18:52:48.084Z,-81
2023-04-09T18:55:16.866Z,-81
2023-04-09T18:57:45.135Z,-82
2023-04-09T19:00:14.032Z,-81
2023-04-09T19:02:42.929Z,-81
2023-04-09T19:05:11.285Z,-81
2023-04-09T19:07:39.493Z,-81
2023-04-09T19:10:09.712Z,-81
2023-04-09T19:12:38.297Z,-81
2023-04-09T19:15:06.977Z,-82
2023-04-09T19:17:35.116Z,-81
2023-04-09T19:20:03.219Z,-82
2023-04-09T19:22:31.308Z,-81
2023-04-09T19:24:59.372Z,-81
2023-04-09T19:27:28.823Z,-81
2023-04-09T19:29:58.801Z,-82
2023-04-09T19:32:26.946Z,-82
2023-04-09T19:34:55.009Z,-82
2023-04-09T19:37:27.251Z,-82
2023-04-09T19:39:55.503Z,-81
2023-04-09T19:42:23.630Z,-81
2023-04-09T19:44:53.083Z,-81
2023-04-09T19:47:21.154Z,-81
2023-04-09T19:49:49.275Z,-82
2023-04-09T19:52:17.294Z,-81
2023-04-09T19:54:45.360Z,-82
2023-04-09T19:57:13.449Z,-81
2023-04-09T19:59:41.855Z,-81
2023-04-09T20:02:11.393Z,-81
2023-04-09T20:04:40.440Z,-81
2023-04-09T20:07:08.500Z,-82
2023-04-09T20:09:41.292Z,-82
2023-04-09T20:12:09.993Z,-81
2023-04-09T20:14:39.486Z,-81
2023-04-09T20:17:08.932Z,-81
2023-04-09T20:19:38.722Z,-81
2023-04-09T20:22:06.760Z,-81
2023-04-09T20:24:35.430Z,-81
2023-04-09T20:27:03.891Z,-81
2023-04-09T20:29:32.007Z,-81
2023-04-09T20:32:00.164Z,-81
2023-04-09T20:34:28.290Z,-81
2023-04-09T20:36:57.735Z,-81
2023-04-09T20:39:26.921Z,-81
2023-04-09T20:41:55.133Z,-81
2023-04-09T20:44:23.195Z,-81
2023-04-09T20:46:52.012Z,-81
2023-04-09T20:49:20.283Z,-81
2023-04-09T20:51:48.375Z,-81
2023-04-09T20:54:18.128Z,-81
2023-04-09T20:56:46.169Z,-81
2023-04-09T20:59:14.256Z,-81
2023-04-09T21:01:42.368Z,-81
2023-04-09T21:04:10.550Z,-81
2023-04-09T21:06:38.680Z,-81
2023-04-09T21:09:06.716Z,-81
2023-04-09T21:11:36.205Z,-81
2023-04-09T21:14:06.905Z,-81
2023-04-09T21:16:35.005Z,-81
2023-04-09T21:19:07.268Z,-81
2023-04-09T21:21:35.423Z,-81
2023-04-09T21:24:03.951Z,-81
2023-04-09T21:26:41.702Z,-81
2023-04-09T21:29:19.738Z,-81
2023-04-09T21:31:49.367Z,-81
2023-04-09T21:34:17.613Z,-81
2023-04-09T21:36:46.306Z,-81
2023-04-09T21:39:14.480Z,-81
2023-04-09T21:41:42.522Z,-81
2023-04-09T21:44:10.581Z,-81
2023-04-09T21:46:40.536Z,-81
2023-04-09T21:49:13.056Z,-81
2023-04-09T21:51:41.116Z,-81
2023-04-09T21:54:09.971Z,-81
2023-04-09T21:56:38.163Z,-81
2023-04-09T21:59:06.250Z,-81
2023-04-09T22:01:35.106Z,-81
2023-04-09T22:04:05.047Z,-81
2023-04-09T22:06:33.221Z,-81
2023-04-09T22:09:01.827Z,-81
2023-04-09T22:11:30.547Z,-81
2023-04-09T22:13:58.838Z,-81
2023-04-09T22:16:27.048Z,-81
2023-04-09T22:19:02.295Z,-82
2023-04-09T22:21:31.753Z,-81
2023-04-09T22:23:59.805Z,-81
2023-04-09T22:26:28.134Z,-81
2023-04-09T22:28:56.484Z,-81
2023-04-09T22:31:24.855Z,-81
2023-04-09T22:33:52.958Z,-81
2023-04-09T22:36:21.087Z,-81
2023-04-09T22:38:51.862Z,-81
2023-04-09T22:41:20.202Z,-81
2023-04-09T22:43:48.594Z,-81
2023-04-09T22:46:16.702Z,-81
2023-04-09T22:48:46.558Z,-81
2023-04-09T22:51:15.552Z,-81
2023-04-09T22:53:43.677Z,-81
2023-04-09T22:56:13.402Z,-81
2023-04-09T22:58:41.654Z,-81
2023-04-09T23:01:09.698Z,-81
2023-04-09T23:03:37.839Z,-81
2023-04-09T23:06:06.303Z,-81
2023-04-09T23:08:34.352Z,-81
2023-04-09T23:11:02.420Z,-81
2023-04-09T23:13:31.826Z,-81
2023-04-09T23:16:00.041Z,-81
2023-04-09T23:18:28.154Z,-81
2023-04-09T23:21:04.880Z,-81
2023-04-09T23:23:32.921Z,-81
2023-04-09T23:26:01.003Z,-81
2023-04-09T23:28:29.073Z,-81
2023-04-09T23:30:58.561Z,-81
2023-04-09T23:33:26.855Z,-81
2023-04-09T23:35:55.039Z,-81
2023-04-09T23:38:23.401Z,-81
2023-04-09T23:40:51.484Z,-81
2023-04-09T23:43:19.578Z,-81
2023-04-09T23:45:49.848Z,-81
2023-04-09T23:48:19.283Z,-82
2023-04-09T23:50:47.847Z,-81
2023-04-09T23:53:16.193Z,-81
2023-04-09T23:55:45.407Z,-81
2023-04-09T23:58:13.926Z,-81
